createdAt,value
2024-03-05T00:00:20.874Z,18
2024-03-05T00:01:20.891Z,18
2024-03-05T00:02:20.850Z,17
2024-03-05T00:03:20.856Z,18
2024-03-05T00:04:20.948Z,18
2024-03-05T00:05:20.840Z,18
2024-03-05T00:06:20.866Z,17
2024-03-05T00:07:20.860Z,18
2024-03-05T00:08:20.845Z,18
2024-03-05T00:09:20.856Z,17
2024-03-05T00:10:20.883Z,19
2024-03-05T00:11:20.929Z,18
2024-03-05T00:12:20.864Z,18
2024-03-05T00:13:20.912Z,17
2024-03-05T00:14:20.853Z,17
2024-03-05T00:15:20.857Z,18
2024-03-05T00:16:20.862Z,18
2024-03-05T00:17:20.848Z,17
2024-03-05T00:18:20.867Z,18
2024-03-05T00:19:20.856Z,18
2024-03-05T00:20:20.852Z,17
2024-03-05T00:21:20.845Z,17
2024-03-05T00:22:20.922Z,18
2024-03-05T00:23:20.843Z,17
2024-03-05T00:24:20.844Z,18
2024-03-05T00:25:20.907Z,17
2024-03-05T00:26:20.852Z,18
2024-03-05T00:27:20.873Z,17
2024-03-05T00:28:20.935Z,17
2024-03-05T00:29:20.859Z,18
2024-03-05T00:30:20.843Z,17
2024-03-05T00:31:20.850Z,17
2024-03-05T00:32:20.842Z,17
2024-03-05T00:33:20.838Z,18
2024-03-05T00:34:20.906Z,17
2024-03-05T00:35:20.858Z,17
2024-03-05T00:36:20.845Z,17
2024-03-05T00:37:20.872Z,17
2024-03-05T00:39:20.868Z,18
2024-03-05T00:40:20.884Z,18
2024-03-05T00:41:20.853Z,18
2024-03-05T00:42:20.844Z,17
2024-03-05T00:43:20.876Z,17
2024-03-05T00:44:20.846Z,17
2024-03-05T00:45:20.839Z,17
2024-03-05T00:46:20.852Z,16
2024-03-05T00:47:20.849Z,17
2024-03-05T00:48:20.847Z,17
2024-03-05T00:49:20.858Z,17
2024-03-05T00:50:20.851Z,18
2024-03-05T00:51:20.893Z,18
2024-03-05T00:53:20.845Z,18
2024-03-05T00:54:20.844Z,18
2024-03-05T00:55:20.903Z,18
2024-03-05T00:56:20.853Z,17
2024-03-05T00:57:20.860Z,18
2024-03-05T00:58:20.859Z,17
2024-03-05T00:59:20.841Z,16
2024-03-05T01:00:21.046Z,17
2024-03-05T01:01:20.903Z,18
2024-03-05T01:02:20.890Z,18
2024-03-05T01:03:20.851Z,18
2024-03-05T01:04:20.862Z,17
2024-03-05T01:05:20.848Z,17
2024-03-05T01:06:20.852Z,16
2024-03-05T01:07:20.877Z,17
2024-03-05T01:08:20.868Z,17
2024-03-05T01:09:20.835Z,17
2024-03-05T01:10:20.888Z,16
2024-03-05T01:11:20.896Z,17
2024-03-05T01:12:20.852Z,17
2024-03-05T01:13:20.982Z,17
2024-03-05T01:14:20.851Z,17
2024-03-05T01:15:20.854Z,18
2024-03-05T01:16:20.870Z,17
2024-03-05T01:17:20.841Z,18
2024-03-05T01:18:20.847Z,17
2024-03-05T01:19:20.874Z,17
2024-03-05T01:20:20.845Z,18
2024-03-05T01:21:20.850Z,18
2024-03-05T01:22:20.855Z,18
2024-03-05T01:23:20.831Z,17
2024-03-05T01:24:20.837Z,17
2024-03-05T01:25:20.916Z,16
2024-03-05T01:26:20.863Z,18
2024-03-05T01:27:20.847Z,18
2024-03-05T01:29:20.830Z,17
2024-03-05T01:30:20.914Z,17
2024-03-05T01:31:20.878Z,18
2024-03-05T01:32:20.846Z,18
2024-03-05T01:33:21.168Z,18
2024-03-05T01:35:20.832Z,17
2024-03-05T01:36:20.868Z,17
2024-03-05T01:37:20.886Z,18
2024-03-05T01:38:20.850Z,19
2024-03-05T01:39:20.842Z,17
2024-03-05T01:40:21.013Z,18
2024-03-05T01:41:20.850Z,17
2024-03-05T01:42:20.896Z,17
2024-03-05T01:43:20.885Z,17
2024-03-05T01:44:21.125Z,18
2024-03-05T01:45:21.057Z,18
2024-03-05T01:46:21.258Z,18
2024-03-05T01:47:20.929Z,18
2024-03-05T01:48:20.960Z,17
2024-03-05T01:49:20.908Z,17
2024-03-05T01:50:20.915Z,18
2024-03-05T01:51:20.839Z,18
2024-03-05T01:52:20.883Z,18
2024-03-05T01:53:20.862Z,17
2024-03-05T01:54:20.848Z,17
2024-03-05T01:55:21.036Z,18
2024-03-05T01:56:20.859Z,18
2024-03-05T01:57:20.862Z,18
2024-03-05T01:59:20.850Z,19
2024-03-05T02:00:20.857Z,19
2024-03-05T02:01:20.901Z,18
2024-03-05T02:03:20.845Z,20
2024-03-05T02:04:20.899Z,19
2024-03-05T02:05:20.832Z,19
2024-03-05T02:06:20.846Z,19
2024-03-05T02:07:20.902Z,18
2024-03-05T02:08:20.843Z,19
2024-03-05T02:09:20.839Z,19
2024-03-05T02:10:20.896Z,19
2024-03-05T02:11:20.956Z,20
2024-03-05T02:12:20.944Z,19
2024-03-05T02:13:20.871Z,18
2024-03-05T02:14:20.851Z,20
2024-03-05T02:16:20.932Z,19
2024-03-05T02:17:20.839Z,19
2024-03-05T02:18:20.834Z,18
2024-03-05T02:19:20.865Z,19
2024-03-05T02:20:20.843Z,19
2024-03-05T02:21:20.895Z,19
2024-03-05T02:22:20.867Z,19
2024-03-05T02:23:20.844Z,19
2024-03-05T02:24:20.839Z,20
2024-03-05T02:25:20.892Z,19
2024-03-05T02:26:20.879Z,19
2024-03-05T02:27:27.271Z,18
2024-03-05T02:28:20.872Z,19
2024-03-05T02:29:20.868Z,18
2024-03-05T02:30:20.864Z,19
2024-03-05T02:31:21.029Z,17
2024-03-05T02:32:20.853Z,18
2024-03-05T02:33:20.851Z,17
2024-03-05T02:34:20.864Z,16
2024-03-05T02:35:20.869Z,17
2024-03-05T02:36:20.838Z,16
2024-03-05T02:37:20.880Z,18
2024-03-05T02:38:20.859Z,17
2024-03-05T02:39:20.849Z,16
2024-03-05T02:40:20.876Z,16
2024-03-05T02:41:20.846Z,18
2024-03-05T02:42:20.892Z,17
2024-03-05T02:43:20.898Z,18
2024-03-05T02:44:20.865Z,17
2024-03-05T02:45:20.846Z,18
2024-03-05T02:47:20.839Z,19
2024-03-05T02:48:20.917Z,19
2024-03-05T02:49:20.962Z,18
2024-03-05T02:50:20.852Z,19
2024-03-05T02:51:20.916Z,19
2024-03-05T02:52:20.892Z,18
2024-03-05T02:53:20.855Z,19
2024-03-05T02:54:20.845Z,19
2024-03-05T02:55:20.916Z,19
2024-03-05T02:56:20.844Z,19
2024-03-05T02:57:20.846Z,19
2024-03-05T02:58:20.851Z,19
2024-03-05T02:59:20.845Z,18
2024-03-05T03:00:21.248Z,19
2024-03-05T03:01:20.851Z,18
2024-03-05T03:02:20.864Z,18
2024-03-05T03:03:20.842Z,20
2024-03-05T03:04:20.881Z,19
2024-03-05T03:05:20.849Z,20
2024-03-05T03:06:20.851Z,19
2024-03-05T03:07:20.868Z,20
2024-03-05T03:08:20.844Z,21
2024-03-05T03:09:20.841Z,22
2024-03-05T03:10:20.879Z,22
2024-03-05T03:11:20.950Z,21
2024-03-05T03:12:20.923Z,21
2024-03-05T03:13:20.891Z,21
2024-03-05T03:14:20.836Z,20
2024-03-05T03:15:20.838Z,22
2024-03-05T03:16:20.862Z,22
2024-03-05T03:17:20.845Z,22
2024-03-05T03:18:20.877Z,22
2024-03-05T03:19:20.872Z,21
2024-03-05T03:20:20.848Z,21
2024-03-05T03:21:20.851Z,22
2024-03-05T03:22:20.914Z,20
2024-03-05T03:23:20.834Z,20
2024-03-05T03:24:20.837Z,21
2024-03-05T03:25:20.883Z,21
2024-03-05T03:26:20.915Z,20
2024-03-05T03:27:20.876Z,21
2024-03-05T03:28:20.990Z,21
2024-03-05T03:29:20.830Z,21
2024-03-05T03:30:20.839Z,22
2024-03-05T03:31:20.888Z,21
2024-03-05T03:32:20.832Z,21
2024-03-05T03:33:20.833Z,23
2024-03-05T03:34:20.861Z,23
2024-03-05T03:35:20.851Z,22
2024-03-05T03:36:20.847Z,21
2024-03-05T03:37:20.880Z,22
2024-03-05T03:38:20.854Z,22
2024-03-05T03:39:20.837Z,23
2024-03-05T03:40:20.864Z,21
2024-03-05T03:41:20.994Z,21
2024-03-05T03:42:20.845Z,21
2024-03-05T03:43:20.927Z,22
2024-03-05T03:44:20.842Z,21
2024-03-05T03:45:20.973Z,22
2024-03-05T03:46:20.868Z,23
2024-03-05T03:47:20.833Z,21
2024-03-05T03:48:20.850Z,23
2024-03-05T03:49:20.885Z,22
2024-03-05T03:50:20.858Z,22
2024-03-05T03:51:20.835Z,22
2024-03-05T03:52:20.863Z,22
2024-03-05T03:53:20.847Z,21
2024-03-05T03:54:20.907Z,21
2024-03-05T03:55:20.864Z,21
2024-03-05T03:56:20.859Z,22
2024-03-05T03:57:20.844Z,21
2024-03-05T03:58:20.869Z,21
2024-03-05T03:59:20.919Z,21
2024-03-05T04:00:20.859Z,22
2024-03-05T04:01:20.944Z,23
2024-03-05T04:02:23.306Z,22
2024-03-05T04:04:20.917Z,22
2024-03-05T04:05:20.849Z,23
2024-03-05T04:06:20.856Z,23
2024-03-05T04:07:20.885Z,22
2024-03-05T04:08:20.846Z,21
2024-03-05T04:09:20.868Z,22
2024-03-05T04:10:20.859Z,21
2024-03-05T04:11:20.885Z,22
2024-03-05T04:12:20.870Z,23
2024-03-05T04:13:20.946Z,22
2024-03-05T04:14:20.852Z,23
2024-03-05T04:15:21.013Z,22
2024-03-05T04:16:20.843Z,22
2024-03-05T04:17:20.840Z,22
2024-03-05T04:18:20.859Z,21
2024-03-05T04:19:20.910Z,23
2024-03-05T04:20:20.848Z,22
2024-03-05T04:21:20.836Z,22
2024-03-05T04:22:20.876Z,23
2024-03-05T04:23:20.830Z,22
2024-03-05T04:24:20.840Z,22
2024-03-05T04:25:20.857Z,22
2024-03-05T04:26:20.879Z,24
2024-03-05T04:27:20.919Z,21
2024-03-05T04:28:20.919Z,23
2024-03-05T04:29:21.174Z,22
2024-03-05T04:30:20.850Z,22
2024-03-05T04:31:20.911Z,20
2024-03-05T04:32:20.876Z,22
2024-03-05T04:33:20.848Z,22
2024-03-05T04:34:20.920Z,23
2024-03-05T04:35:20.836Z,21
2024-03-05T04:36:20.851Z,21
2024-03-05T04:37:20.895Z,24
2024-03-05T04:38:20.831Z,22
2024-03-05T04:39:20.841Z,22
2024-03-05T04:40:20.942Z,22
2024-03-05T04:41:20.864Z,23
2024-03-05T04:42:20.856Z,22
2024-03-05T04:43:20.880Z,22
2024-03-05T04:44:20.828Z,21
2024-03-05T04:45:20.878Z,22
2024-03-05T04:46:20.849Z,22
2024-03-05T04:47:20.835Z,22
2024-03-05T04:48:20.867Z,22
2024-03-05T04:49:20.876Z,23
2024-03-05T04:50:20.860Z,23
2024-03-05T04:51:20.852Z,22
2024-03-05T04:52:20.871Z,22
2024-03-05T04:53:20.834Z,21
2024-03-05T04:54:20.846Z,23
2024-03-05T04:55:20.895Z,22
2024-03-05T04:56:20.854Z,23
2024-03-05T04:57:20.858Z,22
2024-03-05T04:58:20.846Z,21
2024-03-05T04:59:20.844Z,22
2024-03-05T05:00:21.256Z,22
2024-03-05T05:01:20.893Z,22
2024-03-05T05:03:20.837Z,20
2024-03-05T05:04:20.880Z,21
2024-03-05T05:05:20.873Z,22
2024-03-05T05:06:20.844Z,22
2024-03-05T05:07:20.849Z,22
2024-03-05T05:08:20.842Z,21
2024-03-05T05:09:20.833Z,21
2024-03-05T05:10:20.873Z,20
2024-03-05T05:11:21.033Z,21
2024-03-05T05:12:20.852Z,22
2024-03-05T05:13:20.913Z,22
2024-03-05T05:14:20.858Z,22
2024-03-05T05:15:20.860Z,21
2024-03-05T05:16:20.887Z,21
2024-03-05T05:17:20.837Z,23
2024-03-05T05:18:20.863Z,23
2024-03-05T05:19:20.846Z,21
2024-03-05T05:20:20.836Z,21
2024-03-05T05:21:20.839Z,22
2024-03-05T05:22:20.900Z,23
2024-03-05T05:23:20.831Z,21
2024-03-05T05:24:20.844Z,22
2024-03-05T05:25:21.260Z,21
2024-03-05T05:26:20.835Z,21
2024-03-05T05:27:20.897Z,21
2024-03-05T05:28:20.893Z,21
2024-03-05T05:29:31.168Z,21
2024-03-05T05:30:20.848Z,21
2024-03-05T05:31:20.866Z,21
2024-03-05T05:32:20.837Z,21
2024-03-05T05:33:20.839Z,22
2024-03-05T05:34:20.866Z,21
2024-03-05T05:35:20.840Z,22
2024-03-05T05:36:20.872Z,22
2024-03-05T05:37:20.892Z,21
2024-03-05T05:38:20.856Z,21
2024-03-05T05:39:20.899Z,21
2024-03-05T05:40:21.938Z,21
2024-03-05T05:41:20.865Z,21
2024-03-05T05:42:20.840Z,22
2024-03-05T05:43:20.861Z,20
2024-03-05T05:44:20.920Z,20
2024-03-05T05:45:20.856Z,21
2024-03-05T05:47:20.932Z,21
2024-03-05T05:48:20.871Z,20
2024-03-05T05:49:21.133Z,20
2024-03-05T05:50:20.855Z,21
2024-03-05T05:52:20.894Z,20
2024-03-05T05:53:20.827Z,21
2024-03-05T05:54:23.029Z,20
2024-03-05T05:55:21.129Z,19
2024-03-05T05:57:20.849Z,21
2024-03-05T05:58:20.858Z,21
2024-03-05T05:59:20.832Z,20
2024-03-05T06:00:20.869Z,20
2024-03-05T06:01:20.916Z,20
2024-03-05T06:02:20.909Z,21
2024-03-05T06:03:20.840Z,20
2024-03-05T06:04:20.879Z,20
2024-03-05T06:05:20.856Z,20
2024-03-05T06:06:21.268Z,20
2024-03-05T06:07:20.862Z,21
2024-03-05T06:08:20.841Z,20
2024-03-05T06:09:20.842Z,20
2024-03-05T06:10:20.948Z,20
2024-03-05T06:11:20.982Z,21
2024-03-05T06:12:23.903Z,18
2024-03-05T06:13:20.899Z,21
2024-03-05T06:14:20.838Z,19
2024-03-05T06:15:20.847Z,22
2024-03-05T06:16:20.899Z,21
2024-03-05T06:17:20.849Z,21
2024-03-05T06:18:20.925Z,21
2024-03-05T06:19:20.874Z,22
2024-03-05T06:20:20.852Z,20
2024-03-05T06:21:20.833Z,21
2024-03-05T06:22:27.126Z,19
2024-03-05T06:23:21.098Z,20
2024-03-05T06:24:20.832Z,21
2024-03-05T06:25:20.841Z,20
2024-03-05T06:26:20.862Z,20
2024-03-05T06:27:20.855Z,20
2024-03-05T06:28:20.911Z,21
2024-03-05T06:29:20.857Z,20
2024-03-05T06:30:20.861Z,22
2024-03-05T06:31:20.870Z,20
2024-03-05T06:32:20.911Z,21
2024-03-05T06:33:20.842Z,21
2024-03-05T06:34:21.081Z,20
2024-03-05T06:35:20.843Z,20
2024-03-05T06:36:20.850Z,19
2024-03-05T06:37:20.891Z,20
2024-03-05T06:38:20.832Z,21
2024-03-05T06:39:20.856Z,20
2024-03-05T06:40:21.112Z,19
2024-03-05T06:41:20.856Z,20
2024-03-05T06:42:20.864Z,21
2024-03-05T06:43:20.864Z,19
2024-03-05T06:44:20.838Z,20
2024-03-05T06:45:20.850Z,21
2024-03-05T06:46:20.865Z,20
2024-03-05T06:47:20.837Z,19
2024-03-05T06:48:20.891Z,21
2024-03-05T06:49:20.844Z,22
2024-03-05T06:50:21.108Z,21
2024-03-05T06:51:20.846Z,20
2024-03-05T06:52:20.881Z,21
2024-03-05T06:53:20.840Z,21
2024-03-05T06:54:20.852Z,20
2024-03-05T06:55:20.865Z,21
2024-03-05T06:56:20.857Z,21
2024-03-05T06:57:20.850Z,20
2024-03-05T06:58:20.880Z,20
2024-03-05T06:59:20.845Z,21
2024-03-05T07:00:20.837Z,20
2024-03-05T07:01:21.854Z,20
2024-03-05T07:02:20.861Z,22
2024-03-05T07:03:20.840Z,21
2024-03-05T07:04:20.866Z,21
2024-03-05T07:05:20.859Z,21
2024-03-05T07:06:20.839Z,20
2024-03-05T07:07:20.864Z,21
2024-03-05T07:08:20.836Z,20
2024-03-05T07:09:20.844Z,19
2024-03-05T07:10:20.908Z,21
2024-03-05T07:11:21.026Z,20
2024-03-05T07:12:20.849Z,19
2024-03-05T07:13:20.878Z,20
2024-03-05T07:14:20.900Z,20
2024-03-05T07:15:20.845Z,21
2024-03-05T07:16:21.153Z,20
2024-03-05T07:17:20.838Z,19
2024-03-05T07:18:20.836Z,20
2024-03-05T07:19:20.872Z,20
2024-03-05T07:20:20.832Z,21
2024-03-05T07:21:21.946Z,20
2024-03-05T07:22:20.852Z,21
2024-03-05T07:23:20.840Z,20
2024-03-05T07:24:20.843Z,20
2024-03-05T07:25:20.855Z,21
2024-03-05T07:26:20.939Z,20
2024-03-05T07:27:20.873Z,20
2024-03-05T07:28:20.869Z,21
2024-03-05T07:29:20.865Z,21
2024-03-05T07:30:20.843Z,20
2024-03-05T07:31:21.073Z,21
2024-03-05T07:32:20.858Z,21
2024-03-05T07:33:20.828Z,21
2024-03-05T07:34:20.890Z,21
2024-03-05T07:35:20.846Z,20
2024-03-05T07:36:20.848Z,22
2024-03-05T07:37:20.871Z,21
2024-03-05T07:38:20.886Z,20
2024-03-05T07:39:20.849Z,20
2024-03-05T07:40:21.923Z,21
2024-03-05T07:41:29.279Z,20
2024-03-05T07:42:20.861Z,21
2024-03-05T07:43:20.853Z,22
2024-03-05T07:44:20.856Z,25
2024-03-05T07:45:20.847Z,24
2024-03-05T07:46:20.960Z,75
2024-03-05T07:47:20.853Z,47
2024-03-05T07:48:20.929Z,29
2024-03-05T07:49:20.862Z,29
2024-03-05T07:50:20.855Z,25
2024-03-05T07:51:24.924Z,22
2024-03-05T07:52:20.891Z,20
2024-03-05T07:53:20.841Z,18
2024-03-05T07:54:20.824Z,20
2024-03-05T07:55:23.995Z,21
2024-03-05T07:56:20.888Z,21
2024-03-05T07:57:20.858Z,20
2024-03-05T07:58:20.861Z,20
2024-03-05T07:59:20.864Z,21
2024-03-05T08:00:20.832Z,20
2024-03-05T08:01:20.971Z,19
2024-03-05T08:02:20.874Z,20
2024-03-05T08:03:20.861Z,20
2024-03-05T08:05:20.840Z,20
2024-03-05T08:06:20.892Z,20
2024-03-05T08:07:20.864Z,20
2024-03-05T08:08:20.847Z,19
2024-03-05T08:09:20.832Z,20
2024-03-05T08:10:20.897Z,20
2024-03-05T08:11:21.056Z,20
2024-03-05T08:12:22.805Z,20
2024-03-05T08:13:20.883Z,20
2024-03-05T08:14:20.835Z,19
2024-03-05T08:15:20.855Z,20
2024-03-05T08:16:20.884Z,20
2024-03-05T08:17:20.840Z,20
2024-03-05T08:19:20.898Z,21
2024-03-05T08:20:20.884Z,20
2024-03-05T08:21:20.833Z,22
2024-03-05T08:22:20.843Z,19
2024-03-05T08:23:20.844Z,19
2024-03-05T08:24:20.849Z,20
2024-03-05T08:25:20.880Z,20
2024-03-05T08:26:20.873Z,21
2024-03-05T08:27:20.860Z,23
2024-03-05T08:29:20.851Z,20
2024-03-05T08:30:20.896Z,20
2024-03-05T08:31:20.844Z,19
2024-03-05T08:32:20.847Z,20
2024-03-05T08:33:20.841Z,21
2024-03-05T08:34:22.110Z,20
2024-03-05T08:35:20.838Z,21
2024-03-05T08:36:20.832Z,20
2024-03-05T08:37:20.903Z,22
2024-03-05T08:38:20.837Z,20
2024-03-05T08:40:20.982Z,20
2024-03-05T08:41:20.840Z,19
2024-03-05T08:42:20.885Z,20
2024-03-05T08:43:20.936Z,20
2024-03-05T08:44:20.840Z,20
2024-03-05T08:45:20.860Z,21
2024-03-05T08:46:20.907Z,21
2024-03-05T08:47:20.852Z,20
2024-03-05T08:49:20.917Z,20
2024-03-05T08:50:20.845Z,20
2024-03-05T08:51:20.853Z,21
2024-03-05T08:52:20.877Z,21
2024-03-05T08:53:20.842Z,20
2024-03-05T08:54:20.868Z,21
2024-03-05T08:55:20.884Z,22
2024-03-05T08:56:20.846Z,20
2024-03-05T08:57:20.856Z,21
2024-03-05T08:58:20.853Z,21
2024-03-05T08:59:20.850Z,22
2024-03-05T09:00:31.980Z,22
2024-03-05T09:01:20.938Z,25
2024-03-05T09:02:20.884Z,26
2024-03-05T09:03:20.847Z,27
2024-03-05T09:04:20.873Z,22
2024-03-05T09:05:20.838Z,23
2024-03-05T09:06:20.842Z,21
2024-03-05T09:07:20.883Z,21
2024-03-05T09:08:20.840Z,21
2024-03-05T09:09:20.836Z,20
2024-03-05T09:10:20.870Z,21
2024-03-05T09:11:20.902Z,22
2024-03-05T09:12:21.014Z,21
2024-03-05T09:13:20.877Z,20
2024-03-05T09:14:20.838Z,22
2024-03-05T09:16:20.894Z,21
2024-03-05T09:17:20.839Z,22
2024-03-05T09:18:20.853Z,21
2024-03-05T09:19:20.863Z,21
2024-03-05T09:20:20.874Z,21
2024-03-05T09:21:20.858Z,22
2024-03-05T09:22:20.859Z,21
2024-03-05T09:23:20.846Z,20
2024-03-05T09:24:20.836Z,22
2024-03-05T09:25:21.116Z,21
2024-03-05T09:26:20.842Z,21
2024-03-05T09:27:20.861Z,21
2024-03-05T09:29:20.871Z,21
2024-03-05T09:30:20.838Z,21
2024-03-05T09:31:20.894Z,21
2024-03-05T09:32:20.833Z,20
2024-03-05T09:33:20.850Z,21
2024-03-05T09:34:21.300Z,20
2024-03-05T09:35:20.835Z,21
2024-03-05T09:36:20.879Z,21
2024-03-05T09:37:20.871Z,20
2024-03-05T09:38:20.854Z,21
2024-03-05T09:39:20.850Z,21
2024-03-05T09:40:21.036Z,21
2024-03-05T09:41:20.850Z,20
2024-03-05T09:42:20.852Z,21
2024-03-05T09:43:20.871Z,20
2024-03-05T09:44:20.853Z,20
2024-03-05T09:45:20.845Z,21
2024-03-05T09:46:20.875Z,21
2024-03-05T09:47:20.841Z,21
2024-03-05T09:48:20.856Z,21
2024-03-05T09:49:23.325Z,21
2024-03-05T09:50:20.913Z,20
2024-03-05T09:51:20.832Z,21
2024-03-05T09:52:20.877Z,21
2024-03-05T09:53:20.843Z,20
2024-03-05T09:54:20.836Z,20
2024-03-05T09:55:20.891Z,21
2024-03-05T09:56:20.869Z,21
2024-03-05T09:57:20.878Z,21
2024-03-05T09:58:20.871Z,22
2024-03-05T09:59:20.874Z,21
2024-03-05T10:00:20.838Z,21
2024-03-05T10:01:20.898Z,21
2024-03-05T10:02:20.870Z,21
2024-03-05T10:03:20.858Z,20
2024-03-05T10:05:21.374Z,22
2024-03-05T10:06:20.851Z,21
2024-03-05T10:07:20.859Z,22
2024-03-05T10:08:20.844Z,23
2024-03-05T10:09:24.561Z,21
2024-03-05T10:10:20.972Z,22
2024-03-05T10:11:20.993Z,22
2024-03-05T10:12:20.862Z,22
2024-03-05T10:14:20.852Z,23
2024-03-05T10:16:20.905Z,22
2024-03-05T10:17:20.850Z,21
2024-03-05T10:18:20.858Z,22
2024-03-05T10:19:20.856Z,22
2024-03-05T10:20:21.002Z,21
2024-03-05T10:21:20.840Z,21
2024-03-05T10:22:20.864Z,20
2024-03-05T10:23:20.844Z,22
2024-03-05T10:24:20.841Z,21
2024-03-05T10:25:20.855Z,21
2024-03-05T10:26:20.865Z,22
2024-03-05T10:27:20.855Z,22
2024-03-05T10:28:20.858Z,21
2024-03-05T10:29:20.835Z,21
2024-03-05T10:30:20.850Z,21
2024-03-05T10:31:20.888Z,22
2024-03-05T10:32:20.843Z,21
2024-03-05T10:33:20.963Z,21
2024-03-05T10:34:20.891Z,22
2024-03-05T10:35:20.847Z,22
2024-03-05T10:36:20.895Z,22
2024-03-05T10:37:20.888Z,21
2024-03-05T10:38:20.847Z,22
2024-03-05T10:39:20.875Z,22
2024-03-05T10:40:20.860Z,22
2024-03-05T10:41:22.645Z,21
2024-03-05T10:42:21.266Z,21
2024-03-05T10:43:20.909Z,21
2024-03-05T10:44:20.858Z,22
2024-03-05T10:45:20.851Z,23
2024-03-05T10:46:20.860Z,21
2024-03-05T10:47:20.843Z,21
2024-03-05T10:48:20.905Z,22
2024-03-05T10:49:21.130Z,23
2024-03-05T10:50:20.829Z,21
2024-03-05T10:51:20.856Z,20
2024-03-05T10:52:20.898Z,21
2024-03-05T10:53:20.856Z,23
2024-03-05T10:54:20.848Z,21
2024-03-05T10:55:20.857Z,22
2024-03-05T10:56:28.656Z,21
2024-03-05T10:57:20.859Z,22
2024-03-05T10:58:21.199Z,22
2024-03-05T10:59:20.840Z,21
2024-03-05T11:00:20.851Z,21
2024-03-05T11:01:21.203Z,21
2024-03-05T11:02:20.862Z,21
2024-03-05T11:03:20.879Z,22
2024-03-05T11:04:20.877Z,22
2024-03-05T11:05:20.887Z,20
2024-03-05T11:06:20.845Z,21
2024-03-05T11:07:21.092Z,22
2024-03-05T11:09:20.851Z,23
2024-03-05T11:10:20.870Z,21
2024-03-05T11:11:21.036Z,21
2024-03-05T11:12:20.866Z,20
2024-03-05T11:13:20.861Z,21
2024-03-05T11:14:20.843Z,22
2024-03-05T11:16:20.906Z,21
2024-03-05T11:17:20.889Z,20
2024-03-05T11:18:20.849Z,20
2024-03-05T11:19:20.870Z,21
2024-03-05T11:20:20.840Z,19
2024-03-05T11:21:20.915Z,20
2024-03-05T11:22:20.863Z,20
2024-03-05T11:23:20.837Z,21
2024-03-05T11:24:20.836Z,20
2024-03-05T11:25:20.861Z,21
2024-03-05T11:26:20.871Z,21
2024-03-05T11:27:20.882Z,20
2024-03-05T11:28:20.859Z,21
2024-03-05T11:29:20.844Z,20
2024-03-05T11:30:20.837Z,21
2024-03-05T11:31:22.037Z,19
2024-03-05T11:32:20.843Z,20
2024-03-05T11:33:20.953Z,20
2024-03-05T11:34:20.856Z,20
2024-03-05T11:35:20.855Z,19
2024-03-05T11:36:20.839Z,19
2024-03-05T11:37:20.869Z,20
2024-03-05T11:38:20.881Z,19
2024-03-05T11:39:20.884Z,20
2024-03-05T11:40:20.930Z,20
2024-03-05T11:41:20.857Z,20
2024-03-05T11:42:20.937Z,19
2024-03-05T11:43:20.866Z,20
2024-03-05T11:44:20.858Z,20
2024-03-05T11:45:21.892Z,20
2024-03-05T11:46:20.885Z,20
2024-03-05T11:47:20.886Z,20
2024-03-05T11:48:20.924Z,20
2024-03-05T11:49:20.906Z,20
2024-03-05T11:51:20.860Z,21
2024-03-05T11:52:20.868Z,20
2024-03-05T11:53:20.852Z,20
2024-03-05T11:54:22.977Z,21
2024-03-05T11:55:20.857Z,21
2024-03-05T11:56:20.839Z,20
2024-03-05T11:57:20.863Z,20
2024-03-05T11:58:20.874Z,20
2024-03-05T11:59:20.859Z,21
2024-03-05T12:00:20.843Z,21
2024-03-05T12:01:20.866Z,20
2024-03-05T12:02:20.933Z,20
2024-03-05T12:03:20.877Z,20
2024-03-05T12:04:20.870Z,20
2024-03-05T12:05:20.987Z,20
2024-03-05T12:06:20.854Z,20
2024-03-05T12:07:20.881Z,20
2024-03-05T12:08:20.889Z,20
2024-03-05T12:09:20.845Z,21
2024-03-05T12:10:20.859Z,22
2024-03-05T12:11:20.948Z,21
2024-03-05T12:12:20.893Z,21
2024-03-05T12:13:21.066Z,19
2024-03-05T12:14:20.838Z,20
2024-03-05T12:15:20.849Z,20
2024-03-05T12:16:20.934Z,19
2024-03-05T12:17:20.874Z,17
2024-03-05T12:18:20.865Z,17
2024-03-05T12:19:20.906Z,18
2024-03-05T12:20:20.859Z,17
2024-03-05T12:21:22.523Z,17
2024-03-05T12:22:20.899Z,17
2024-03-05T12:23:40.491Z,18
2024-03-05T12:24:20.874Z,17
2024-03-05T12:25:20.910Z,16
2024-03-05T12:26:20.855Z,16
2024-03-05T12:27:20.875Z,17
2024-03-05T12:28:20.919Z,18
2024-03-05T12:29:20.883Z,17
2024-03-05T12:30:22.867Z,17
2024-03-05T12:31:20.900Z,17
2024-03-05T12:32:20.858Z,17
2024-03-05T12:33:20.908Z,17
2024-03-05T12:34:20.895Z,18
2024-03-05T12:35:20.842Z,16
2024-03-05T12:36:20.854Z,17
2024-03-05T12:37:21.245Z,17
2024-03-05T12:38:20.893Z,17
2024-03-05T12:39:20.852Z,15
2024-03-05T12:40:20.878Z,17
2024-03-05T12:41:20.849Z,16
2024-03-05T12:42:20.871Z,18
2024-03-05T12:43:20.882Z,19
2024-03-05T12:44:20.849Z,18
2024-03-05T12:45:20.847Z,17
2024-03-05T12:46:20.887Z,16
2024-03-05T12:47:20.881Z,16
2024-03-05T12:48:20.869Z,17
2024-03-05T12:49:20.908Z,16
2024-03-05T12:50:20.867Z,17
2024-03-05T12:51:20.865Z,16
2024-03-05T12:52:21.054Z,16
2024-03-05T12:53:20.858Z,18
2024-03-05T12:54:20.852Z,22
2024-03-05T12:55:20.928Z,25
2024-03-05T12:56:20.858Z,21
2024-03-05T12:57:20.860Z,17
2024-03-05T12:58:20.870Z,16
2024-03-05T12:59:20.853Z,19
2024-03-05T13:00:20.865Z,17
2024-03-05T13:01:20.981Z,16
2024-03-05T13:02:20.907Z,16
2024-03-05T13:03:20.840Z,17
2024-03-05T13:04:20.911Z,16
2024-03-05T13:05:20.973Z,16
2024-03-05T13:06:20.852Z,14
2024-03-05T13:07:21.275Z,14
2024-03-05T13:08:20.908Z,15
2024-03-05T13:09:20.860Z,14
2024-03-05T13:10:20.901Z,15
2024-03-05T13:11:21.002Z,15
2024-03-05T13:12:20.860Z,15
2024-03-05T13:13:20.901Z,15
2024-03-05T13:14:23.089Z,15
2024-03-05T13:16:20.895Z,15
2024-03-05T13:17:20.964Z,14
2024-03-05T13:18:20.935Z,14
2024-03-05T13:19:20.887Z,15
2024-03-05T13:20:20.859Z,14
2024-03-05T13:21:20.935Z,14
2024-03-05T13:22:20.866Z,14
2024-03-05T13:23:20.868Z,14
2024-03-05T13:24:20.838Z,14
2024-03-05T13:25:20.871Z,15
2024-03-05T13:26:20.855Z,16
2024-03-05T13:27:20.865Z,15
2024-03-05T13:29:20.849Z,14
2024-03-05T13:30:20.866Z,15
2024-03-05T13:31:20.864Z,16
2024-03-05T13:32:20.878Z,15
2024-03-05T13:33:20.951Z,15
2024-03-05T13:34:20.876Z,14
2024-03-05T13:35:20.862Z,17
2024-03-05T13:36:20.841Z,17
2024-03-05T13:37:20.878Z,15
2024-03-05T13:38:20.883Z,14
2024-03-05T13:39:21.211Z,14
2024-03-05T13:40:20.880Z,13
2024-03-05T13:41:20.865Z,13
2024-03-05T13:42:20.888Z,13
2024-03-05T13:44:20.844Z,15
2024-03-05T13:45:20.860Z,13
2024-03-05T13:46:20.967Z,14
2024-03-05T13:47:20.851Z,13
2024-03-05T13:48:20.962Z,14
2024-03-05T13:49:21.200Z,13
2024-03-05T13:50:20.946Z,14
2024-03-05T13:51:20.855Z,14
2024-03-05T13:52:20.883Z,14
2024-03-05T13:53:20.918Z,14
2024-03-05T13:54:20.860Z,15
2024-03-05T13:55:20.854Z,13
2024-03-05T13:56:20.869Z,14
2024-03-05T13:57:20.868Z,14
2024-03-05T13:58:20.869Z,13
2024-03-05T13:59:20.999Z,15
2024-03-05T14:00:21.729Z,14
2024-03-05T14:02:20.939Z,14
2024-03-05T14:03:20.860Z,14
2024-03-05T14:04:20.847Z,14
2024-03-05T14:05:20.860Z,14
2024-03-05T14:06:20.850Z,14
2024-03-05T14:07:20.859Z,14
2024-03-05T14:08:20.892Z,15
2024-03-05T14:09:20.845Z,14
2024-03-05T14:10:20.925Z,15
2024-03-05T14:11:20.980Z,15
2024-03-05T14:12:20.875Z,15
2024-03-05T14:13:20.860Z,15
2024-03-05T14:14:20.866Z,15
2024-03-05T14:15:21.964Z,15
2024-03-05T14:16:20.853Z,14
2024-03-05T14:17:20.921Z,15
2024-03-05T14:18:21.023Z,16
2024-03-05T14:19:20.858Z,16
2024-03-05T14:20:21.337Z,14
2024-03-05T14:21:20.847Z,14
2024-03-05T14:22:20.875Z,14
2024-03-05T14:23:20.893Z,13
2024-03-05T14:24:20.869Z,12
2024-03-05T14:25:20.861Z,13
2024-03-05T14:26:20.855Z,12
2024-03-05T14:27:20.878Z,12
2024-03-05T14:28:20.866Z,11
2024-03-05T14:29:20.857Z,12
2024-03-05T14:30:21.175Z,13
2024-03-05T14:31:20.846Z,11
2024-03-05T14:32:20.864Z,12
2024-03-05T14:33:22.977Z,14
2024-03-05T14:35:20.854Z,13
2024-03-05T14:36:20.851Z,12
2024-03-05T14:37:20.866Z,12
2024-03-05T14:38:20.872Z,12
2024-03-05T14:39:20.884Z,12
2024-03-05T14:40:20.873Z,11
2024-03-05T14:41:20.845Z,12
2024-03-05T14:42:20.896Z,11
2024-03-05T14:43:20.875Z,10
2024-03-05T14:44:20.857Z,11
2024-03-05T14:45:20.865Z,11
2024-03-05T14:46:20.857Z,11